Time;durP1;ratioP1;P1;durP2;ratioP2;P2;SDS_P1;SDS_P2;PMS_P1;PMS_P2;Temp;Humidity;BMP_temperature;BMP_pressure;BME280_temperature;BME280_humidity;BME280_pressure;Samples;Min_cycle;Max_cycle;Signal;HPM_P1;HPM_P2
2023/11/28 05:33:00;;;;;;;36.00;17.20;;;;;;;-4.18;100.00;99939.19;107416;1292;548061;-68
2023/11/28 05:35:25;;;;;;;31.90;16.00;;;;;;;-1.79;100.00;99931.13;107081;1287;1002386;-61
2023/11/28 05:37:51;;;;;;;42.50;20.20;;;;;;;-1.36;100.00;99933.28;107601;1289;21988;-69
2023/11/28 05:40:17;;;;;;;44.30;21.40;;;;;;;-1.06;100.00;99927.39;106881;1295;1003218;-64
2023/11/28 05:42:44;;;;;;;45.00;20.80;;;;;;;-0.79;100.00;99919.32;107609;1294;21994;-68
2023/11/28 05:45:09;;;;;;;47.00;24.20;;;;;;;-0.60;100.00;99912.05;107589;1287;195182;-63
2023/11/28 05:47:37;;;;;;;42.50;22.40;;;;;;;-0.49;100.00;99912.00;107812;1290;22001;-68
2023/11/28 05:50:06;;;;;;;41.90;24.10;;;;;;;-0.41;100.00;99912.16;107103;1292;1014843;-65
2023/11/28 05:52:32;;;;;;;44.20;23.40;;;;;;;-0.36;100.00;99908.52;107870;1291;22083;-64
2023/11/28 05:54:58;;;;;;;44.30;25.30;;;;;;;-0.28;100.00;99908.55;107879;1287;22003;-68
2023/11/28 05:57:23;;;;;;;41.80;23.90;;;;;;;-0.18;100.00;99905.13;107938;1292;22004;-63
2023/11/28 05:59:50;;;;;;;43.40;22.50;;;;;;;-0.07;100.00;99898.33;107824;1287;21989;-68
2023/11/28 06:02:16;;;;;;;44.00;23.60;;;;;;;0.04;100.00;99893.05;107815;1292;21990;-62
2023/11/28 06:04:42;;;;;;;50.60;23.10;;;;;;;0.15;100.00;99890.36;107840;1290;22001;-69
2023/11/28 06:07:07;;;;;;;45.40;21.20;;;;;;;0.24;100.00;99881.77;107909;1283;21999;-63
2023/11/28 06:09:33;;;;;;;38.10;21.80;;;;;;;0.34;100.00;99882.67;107904;1290;22000;-62
2023/11/28 06:11:59;;;;;;;46.50;25.30;;;;;;;0.38;100.00;99883.11;107917;1287;21990;-68
2023/11/28 06:14:24;;;;;;;39.00;21.80;;;;;;;0.40;100.00;99885.22;107816;1286;21993;-62
2023/11/28 06:16:50;;;;;;;38.30;21.70;;;;;;;0.45;100.00;99881.52;107788;1290;22052;-69
2023/11/28 06:19:16;;;;;;;36.70;22.00;;;;;;;0.54;100.00;99887.23;107767;1290;23712;-62
2023/11/28 06:21:42;;;;;;;37.10;22.20;;;;;;;0.63;100.00;99895.16;107802;1289;21997;-69
2023/11/28 06:24:08;;;;;;;42.40;23.00;;;;;;;0.70;100.00;99897.38;107792;1292;21990;-69
2023/11/28 06:26:34;;;;;;;33.60;19.40;;;;;;;0.78;100.00;99902.55;107796;1281;22014;-67
2023/11/28 06:28:59;;;;;;;32.10;19.00;;;;;;;0.87;100.00;99899.96;107784;1292;22000;-66
2023/11/28 06:31:25;;;;;;;31.20;18.40;;;;;;;0.96;100.00;99898.77;107782;1284;21989;-67
2023/11/28 06:33:51;;;;;;;32.40;21.00;;;;;;;1.03;100.00;99889.73;107900;1292;21995;-67
2023/11/28 06:36:18;;;;;;;26.40;16.90;;;;;;;1.10;100.00;99884.84;107800;1284;21987;-66
2023/11/28 06:38:44;;;;;;;43.50;23.50;;;;;;;1.20;100.00;99885.35;107793;1290;21989;-68
2023/11/28 06:41:10;;;;;;;37.60;22.30;;;;;;;1.29;100.00;99880.33;107814;1292;21999;-68
2023/11/28 06:43:38;;;;;;;35.30;20.20;;;;;;;1.38;100.00;99877.90;107804;1292;22000;-66
2023/11/28 06:46:05;;;;;;;36.60;20.70;;;;;;;1.49;100.00;99876.34;107746;1287;22011;-67
2023/11/28 06:48:31;;;;;;;25.90;15.30;;;;;;;1.56;100.00;99871.77;107759;1284;24318;-68
2023/11/28 06:50:57;;;;;;;23.60;14.60;;;;;;;1.64;100.00;99867.59;107873;1286;22855;-71
2023/11/28 06:53:22;;;;;;;26.20;14.90;;;;;;;1.72;100.00;99864.95;107827;1292;22003;-64
2023/11/28 06:55:48;;;;;;;37.50;19.60;;;;;;;1.80;100.00;99868.70;107372;1292;22115;-64
2023/11/28 06:58:14;;;;;;;29.90;16.90;;;;;;;1.87;100.00;99873.48;107896;1284;22929;-65
2023/11/28 07:00:39;;;;;;;31.10;17.00;;;;;;;1.95;100.00;99872.57;107011;1284;1002387;-64
2023/11/28 07:03:06;;;;;;;22.10;13.80;;;;;;;2.04;100.00;99870.44;107820;1292;21998;-63
2023/11/28 07:05:34;;;;;;;22.70;14.00;;;;;;;2.11;100.00;99868.97;107811;1292;24323;-63
2023/11/28 07:08:00;;;;;;;21.20;13.90;;;;;;;2.16;100.00;99865.95;107835;1287;21991;-64
2023/11/28 07:10:26;;;;;;;20.90;13.00;;;;;;;2.22;100.00;99859.42;107796;1287;22030;-64
2023/11/28 07:12:52;;;;;;;20.00;11.90;;;;;;;2.25;100.00;99857.05;107915;1283;21997;-65
2023/11/28 07:15:17;;;;;;;23.90;12.90;;;;;;;2.29;100.00;99856.75;107851;1287;21990;-64
2023/11/28 07:17:43;;;;;;;19.20;11.00;;;;;;;2.34;100.00;99851.98;107748;1287;21991;-65
2023/11/28 07:20:11;;;;;;;17.80;12.30;;;;;;;2.40;100.00;99843.04;107747;1292;21994;-63
2023/11/28 07:22:37;;;;;;;16.60;11.20;;;;;;;2.43;100.00;99837.53;107791;1290;21994;-72
2023/11/28 07:25:03;;;;;;;17.60;8.90;;;;;;;2.48;100.00;99837.60;107785;1284;22000;-72
2023/11/28 07:27:29;;;;;;;14.30;9.60;;;;;;;2.55;100.00;99839.23;107807;1284;21995;-71
2023/11/28 07:29:55;;;;;;;14.70;9.00;;;;;;;2.60;100.00;99833.40;107780;1290;21983;-72
2023/11/28 07:32:23;;;;;;;15.20;9.30;;;;;;;2.64;100.00;99830.34;107799;1287;23727;-72
2023/11/28 07:34:49;;;;;;;18.00;11.50;;;;;;;2.72;100.00;99831.96;107776;1281;21992;-71
2023/11/28 07:37:15;;;;;;;18.10;10.60;;;;;;;2.82;100.00;99832.43;107838;1290;23744;-65
2023/11/28 07:39:40;;;;;;;19.00;10.70;;;;;;;2.90;100.00;99831.64;107766;1292;23627;-72
2023/11/28 07:42:06;;;;;;;20.30;12.80;;;;;;;2.96;100.00;99833.61;107756;1287;22000;-70
2023/11/28 15:05:50;;;;;;;28.00;13.10;;;;;;;5.95;100.00;99200.54;107808;1284;551592;-63
2023/11/28 15:08:16;;;;;;;26.80;17.20;;;;;;;8.25;100.00;99191.13;107917;1288;21991;-68
2023/11/28 15:10:42;;;;;;;30.60;16.00;;;;;;;8.63;100.00;99180.70;108054;1287;21984;-63
2023/11/28 15:13:08;;;;;;;30.90;14.60;;;;;;;8.83;100.00;99172.02;108060;1287;23645;-63
2023/11/28 15:15:33;;;;;;;32.70;10.90;;;;;;;8.98;100.00;99161.33;108068;1276;22024;-67
2023/11/28 15:17:59;;;;;;;31.90;12.00;;;;;;;9.06;100.00;99151.48;108003;1285;159506;-66
2023/11/28 15:20:25;;;;;;;30.10;10.60;;;;;;;9.12;100.00;99138.55;108039;1284;21984;-63
2023/11/28 15:22:50;;;;;;;18.20;7.70;;;;;;;9.15;100.00;99129.91;108069;1285;22161;-63
2023/11/28 15:25:16;;;;;;;34.30;13.90;;;;;;;9.16;100.00;99123.40;108059;1285;21999;-63
2023/11/28 15:27:42;;;;;;;21.90;12.10;;;;;;;9.20;100.00;99116.98;108041;1286;21993;-67
2023/11/28 15:30:10;;;;;;;16.10;6.40;;;;;;;9.24;100.00;99114.61;108109;1285;22005;-67
2023/11/28 15:32:37;;;;;;;17.30;7.60;;;;;;;9.31;100.00;99111.63;108033;1286;23620;-67
2023/11/28 15:35:04;;;;;;;38.70;16.80;;;;;;;9.34;100.00;99112.95;108103;1285;22451;-66
2023/11/28 15:37:30;;;;;;;19.70;8.80;;;;;;;9.35;100.00;99110.83;108084;1285;23721;-67
2023/11/28 15:39:56;;;;;;;24.80;7.60;;;;;;;9.35;100.00;99106.96;108071;1285;21984;-67
2023/11/28 15:42:25;;;;;;;21.00;7.50;;;;;;;9.37;100.00;99103.04;108014;1285;21981;-67
2023/11/28 15:44:52;;;;;;;22.50;8.00;;;;;;;9.43;100.00;99095.02;108033;1284;21994;-67
2023/11/28 15:47:18;;;;;;;19.90;8.50;;;;;;;9.42;100.00;99094.17;108036;1285;21995;-66
2023/11/28 15:49:43;;;;;;;18.70;5.90;;;;;;;9.40;100.00;99093.36;108163;1281;22043;-66
2023/11/28 15:52:09;;;;;;;11.90;5.20;;;;;;;9.43;100.00;99091.00;108214;1285;22024;-64
2023/11/28 15:54:34;;;;;;;18.60;5.30;;;;;;;9.48;100.00;99085.95;108075;1285;21993;-67
2023/11/28 15:57:00;;;;;;;24.00;7.40;;;;;;;9.55;100.00;99082.59;108049;1285;21989;-65
2023/11/28 15:59:26;;;;;;;22.80;8.50;;;;;;;9.55;100.00;99079.10;108068;1285;24316;-63
2023/11/28 16:01:51;;;;;;;24.40;11.60;;;;;;;9.56;100.00;99075.92;108047;1285;21998;-68
2023/11/28 16:04:17;;;;;;;21.90;7.70;;;;;;;9.58;100.00;99080.92;108033;1285;21980;-68
2023/11/28 16:06:42;;;;;;;14.40;6.00;;;;;;;9.61;100.00;99080.84;108056;1283;21986;-64
2023/11/28 16:09:08;;;;;;;20.40;7.90;;;;;;;9.60;100.00;99078.58;108052;1285;23605;-65
2023/11/28 16:11:39;;;;;;;32.60;8.90;;;;;;;9.63;100.00;99077.46;108046;1280;21980;-69
2023/11/28 16:14:05;;;;;;;24.10;7.70;;;;;;;9.66;100.00;99075.28;108097;1285;21987;-66
2023/11/28 16:16:31;;;;;;;22.40;6.40;;;;;;;9.67;100.00;99077.70;108070;1285;21982;-66
2023/11/28 16:19:00;;;;;;;12.90;5.60;;;;;;;9.66;100.00;99068.09;108267;1276;23764;-66
2023/11/28 16:21:29;;;;;;;18.60;6.50;;;;;;;9.63;100.00;99063.62;108025;1285;22132;-66
2023/11/28 16:23:56;;;;;;;16.90;6.60;;;;;;;9.59;100.00;99059.91;108090;1285;21983;-66
2023/11/28 16:26:22;;;;;;;20.80;6.30;;;;;;;9.58;100.00;99062.21;108067;1283;23723;-66
2023/11/28 16:28:47;;;;;;;21.50;5.40;;;;;;;9.56;100.00;99056.48;108066;1284;22023;-66
2023/11/28 16:31:18;;;;;;;21.20;5.90;;;;;;;9.56;100.00;99054.02;108258;1285;22024;-69
2023/11/28 16:33:43;;;;;;;15.80;5.50;;;;;;;9.54;100.00;99049.00;108243;1283;21995;-66
2023/11/28 16:36:10;;;;;;;17.60;6.00;;;;;;;9.51;100.00;99047.34;108312;1285;21994;-68
2023/11/28 16:38:36;;;;;;;64.20;28.10;;;;;;;9.50;100.00;99044.91;108373;1274;24038;-66
2023/11/28 16:41:01;;;;;;;131.30;64.00;;;;;;;9.47;100.00;99040.27;108347;1285;21990;-67
2023/11/28 16:43:27;;;;;;;59.70;32.20;;;;;;;9.45;100.00;99041.04;108066;1285;23712;-65
2023/11/28 16:45:52;;;;;;;23.90;11.30;;;;;;;9.49;100.00;99032.16;108085;1280;22037;-64
2023/11/28 16:48:19;;;;;;;26.50;13.60;;;;;;;9.53;100.00;99029.05;108037;1285;21999;-64
2023/11/28 16:50:45;;;;;;;104.10;49.20;;;;;;;9.53;100.00;99023.46;108101;1283;21987;-69
2023/11/28 16:53:12;;;;;;;391.10;160.50;;;;;;;9.53;100.00;99022.06;108036;1285;21989;-69
2023/11/28 16:55:37;;;;;;;182.20;89.40;;;;;;;9.52;100.00;99018.39;108048;1283;21996;-68
2023/11/28 16:58:03;;;;;;;31.00;12.70;;;;;;;9.50;100.00;99014.06;108089;1283;22021;-68
2023/11/28 17:00:30;;;;;;;16.10;5.90;;;;;;;9.47;100.00;99005.26;108045;1280;22021;-64
2023/11/28 17:02:56;;;;;;;16.60;6.20;;;;;;;9.51;100.00;99002.15;108146;1274;21992;-64
2023/11/28 17:05:22;;;;;;;17.50;7.20;;;;;;;9.55;100.00;98993.80;108068;1285;21998;-69
2023/11/28 17:07:48;;;;;;;16.30;5.60;;;;;;;9.54;100.00;98991.36;108042;1285;21988;-64
2023/11/28 17:10:15;;;;;;;15.00;5.70;;;;;;;9.56;100.00;98986.24;108047;1277;22264;-65
2023/11/28 17:12:41;;;;;;;17.50;5.60;;;;;;;9.57;100.00;98980.63;108097;1277;23068;-63
2023/11/28 17:15:07;;;;;;;15.50;6.40;;;;;;;9.62;100.00;98973.10;108037;1285;21985;-64
2023/11/28 17:17:34;;;;;;;13.60;5.50;;;;;;;9.64;100.00;98970.41;108066;1285;21991;-63
2023/11/28 17:20:00;;;;;;;20.20;4.90;;;;;;;9.71;100.00;98960.58;108083;1285;21986;-68
2023/11/28 17:22:25;;;;;;;16.00;5.20;;;;;;;9.72;100.00;98957.20;108043;1277;21993;-63
2023/11/28 17:24:51;;;;;;;17.00;5.70;;;;;;;9.74;100.00;98953.30;108002;1283;21986;-68
2023/11/28 17:27:17;;;;;;;19.20;5.60;;;;;;;9.75;100.00;98946.77;108014;1284;21995;-64
2023/11/28 17:29:43;;;;;;;20.30;5.60;;;;;;;9.77;100.00;98943.56;108334;1285;23651;-64
2023/11/28 17:32:14;;;;;;;14.00;5.60;;;;;;;9.76;100.00;98940.63;108220;1285;22005;-64
2023/11/28 17:34:41;;;;;;;17.30;6.70;;;;;;;9.78;100.00;98937.95;108240;1285;23650;-63
2023/11/28 17:37:07;;;;;;;22.50;6.30;;;;;;;9.78;100.00;98934.95;108112;1280;23784;-69
2023/11/28 17:39:33;;;;;;;19.10;6.50;;;;;;;9.77;100.00;98931.63;108033;1285;22038;-68
2023/11/28 17:42:00;;;;;;;22.80;7.10;;;;;;;9.77;100.00;98929.55;108022;1285;21984;-68
2023/11/28 17:44:26;;;;;;;19.80;5.50;;;;;;;9.76;100.00;98926.60;108040;1283;22172;-63
2023/11/28 17:46:52;;;;;;;15.20;5.20;;;;;;;9.74;100.00;98919.30;108015;1283;22024;-68
2023/11/28 17:49:17;;;;;;;19.30;4.80;;;;;;;9.76;100.00;98910.85;108073;1273;22043;-64
2023/11/28 17:51:45;;;;;;;15.80;5.10;;;;;;;9.80;100.00;98905.10;108064;1285;23661;-67
2023/11/28 17:54:11;;;;;;;13.40;4.30;;;;;;;9.83;100.00;98901.34;108020;1285;22166;-63
2023/11/28 17:56:41;;;;;;;75.80;31.30;;;;;;;9.83;100.00;98894.50;108109;1285;22262;-67
2023/11/28 17:59:10;;;;;;;23.90;8.50;;;;;;;9.78;100.00;98894.31;108027;1285;22264;-68
2023/11/28 18:01:40;;;;;;;16.30;5.00;;;;;;;9.78;100.00;98894.84;108092;1283;22041;-64
2023/11/28 18:04:05;;;;;;;18.90;5.10;;;;;;;9.79;100.00;98894.47;108179;1285;21996;-68
2023/11/28 18:06:31;;;;;;;15.80;4.90;;;;;;;9.83;100.00;98889.08;108116;1285;22076;-68
2023/11/28 18:08:56;;;;;;;13.40;3.80;;;;;;;9.86;100.00;98887.40;108124;1285;23722;-69
2023/11/28 18:11:22;;;;;;;13.40;4.70;;;;;;;9.89;100.00;98882.73;108172;1278;21984;-68
2023/11/28 18:13:48;;;;;;;14.40;4.00;;;;;;;9.89;100.00;98879.95;108107;1285;21984;-69
2023/11/28 18:16:14;;;;;;;22.10;5.70;;;;;;;9.88;100.00;98878.77;108134;1285;22027;-69
2023/11/28 18:18:40;;;;;;;42.00;19.50;;;;;;;9.93;100.00;98872.61;108106;1282;22414;-68
2023/11/28 18:21:06;;;;;;;100.40;57.30;;;;;;;9.96;100.00;98871.98;108285;1285;21998;-69
2023/11/28 18:23:32;;;;;;;59.20;34.40;;;;;;;10.00;100.00;98866.24;108076;1286;23053;-68
2023/11/28 18:26:03;;;;;;;26.00;12.10;;;;;;;10.01;100.00;98863.94;108057;1285;22921;-68
2023/11/28 18:28:29;;;;;;;19.50;7.30;;;;;;;10.00;100.00;98859.06;109611;1283;21991;-64
2023/11/28 18:30:55;;;;;;;19.60;7.40;;;;;;;10.02;100.00;98858.65;108293;1285;21990;-69
2023/11/28 18:33:20;;;;;;;18.60;5.80;;;;;;;10.01;100.00;98864.45;108090;1285;23689;-69
2023/11/28 18:35:46;;;;;;;17.20;4.80;;;;;;;10.04;100.00;98857.70;108243;1285;23645;-64
2023/11/28 18:38:13;;;;;;;20.20;5.70;;;;;;;10.06;100.00;98852.21;108105;1285;22027;-69
2023/11/28 18:40:41;;;;;;;17.30;5.70;;;;;;;10.07;100.00;98851.64;108189;1285;21997;-70
2023/11/28 18:43:08;;;;;;;16.40;6.00;;;;;;;10.09;100.00;98847.20;108049;1285;21989;-66
2023/11/28 18:45:33;;;;;;;13.10;5.70;;;;;;;10.05;100.00;98843.29;108258;1277;22001;-65
2023/11/28 18:47:59;;;;;;;15.90;4.80;;;;;;;10.03;100.00;98845.63;108282;1285;21991;-65
2023/11/28 18:50:25;;;;;;;15.70;5.80;;;;;;;10.02;100.00;98841.64;108299;1285;22454;-66
2023/11/28 18:52:52;;;;;;;16.10;5.70;;;;;;;10.01;100.00;98835.73;108149;1285;23631;-70
2023/11/28 18:55:18;;;;;;;16.50;6.00;;;;;;;10.00;100.00;98833.31;108071;1285;22077;-70
2023/11/28 18:57:45;;;;;;;14.40;5.60;;;;;;;9.99;100.00;98824.94;108061;1285;21989;-70
2023/11/28 19:00:12;;;;;;;16.60;5.40;;;;;;;9.98;100.00;98819.34;108073;1285;22247;-65
2023/11/28 19:02:39;;;;;;;13.60;5.30;;;;;;;9.98;100.00;98807.96;108086;1282;21988;-71
2023/11/28 19:05:05;;;;;;;11.50;4.30;;;;;;;9.99;100.00;98801.63;108098;1285;23606;-71
2023/11/28 19:07:31;;;;;;;13.50;5.60;;;;;;;10.00;100.00;98796.52;108083;1285;22018;-64
2023/11/28 19:09:57;;;;;;;17.40;5.40;;;;;;;9.99;100.00;98789.87;108058;1285;21993;-71
2023/11/28 19:12:23;;;;;;;15.90;4.40;;;;;;;10.03;100.00;98785.73;108109;1285;21993;-71
2023/11/28 19:14:49;;;;;;;94.50;51.10;;;;;;;10.06;100.00;98780.54;108065;1280;21987;-65
2023/11/28 19:17:16;;;;;;;24.10;12.30;;;;;;;10.08;100.00;98776.58;108049;1285;21989;-67
2023/11/28 19:19:43;;;;;;;21.20;8.10;;;;;;;10.17;100.00;98771.55;108078;1286;21991;-71
2023/11/28 19:22:09;;;;;;;17.70;7.70;;;;;;;10.18;100.00;98765.90;108070;1285;21997;-71
2023/11/28 19:24:36;;;;;;;17.90;6.30;;;;;;;10.15;100.00;98767.58;108099;1282;23718;-66
2023/11/28 19:27:02;;;;;;;18.60;5.80;;;;;;;10.13;100.00;98758.04;108164;1285;21991;-66
2023/11/28 19:29:28;;;;;;;18.70;6.20;;;;;;;10.13;100.00;98752.23;108379;1283;24384;-65
2023/11/28 19:31:54;;;;;;;25.40;5.90;;;;;;;10.12;100.00;98748.24;108213;1285;21987;-67
2023/11/28 19:34:19;;;;;;;11.80;4.40;;;;;;;10.16;100.00;98742.85;108164;1280;23714;-72
2023/11/28 19:36:45;;;;;;;16.00;5.00;;;;;;;10.21;100.00;98737.58;108196;1285;22146;-70
2023/11/28 19:39:11;;;;;;;15.30;4.20;;;;;;;10.21;100.00;98729.66;108107;1285;22027;-65
2023/11/28 19:41:37;;;;;;;11.70;3.80;;;;;;;10.18;100.00;98727.14;108165;1285;21995;-68
2023/11/28 19:44:02;;;;;;;16.40;3.70;;;;;;;10.15;100.00;98722.20;108053;1274;21986;-72
2023/11/28 19:46:31;;;;;;;15.30;4.60;;;;;;;10.17;100.00;98715.65;108038;1285;23741;-73
2023/11/28 19:48:57;;;;;;;16.10;4.20;;;;;;;10.22;100.00;98711.05;108111;1285;21986;-66
2023/11/28 19:51:24;;;;;;;13.80;4.10;;;;;;;10.25;100.00;98709.38;108258;1285;21977;-66
2023/11/28 19:53:51;;;;;;;13.50;3.50;;;;;;;10.21;100.00;98702.15;108114;1285;22956;-65
2023/11/28 19:56:17;;;;;;;17.00;4.90;;;;;;;10.21;100.00;98703.55;108132;1285;21988;-73
2023/11/28 19:58:43;;;;;;;33.50;8.90;;;;;;;10.29;100.00;98700.28;108241;1285;23055;-65
2023/11/28 20:01:09;;;;;;;47.40;12.50;;;;;;;10.25;100.00;98691.83;108135;1285;23641;-66
2023/11/28 20:03:37;;;;;;;49.20;14.80;;;;;;;10.27;100.00;98689.15;108168;1285;23036;-65
2023/11/28 20:06:04;;;;;;;39.80;12.30;;;;;;;10.31;100.00;98692.14;108242;1285;21991;-65
2023/11/28 20:08:30;;;;;;;28.90;9.90;;;;;;;10.32;100.00;98685.62;108120;1285;21980;-65
2023/11/28 20:10:55;;;;;;;36.60;12.70;;;;;;;10.33;100.00;98679.79;108123;1285;22000;-74
2023/11/28 20:13:22;;;;;;;22.50;7.10;;;;;;;10.35;100.00;98679.02;108082;1285;22050;-75
2023/11/28 20:15:49;;;;;;;48.00;29.80;;;;;;;10.39;100.00;98676.25;108075;1285;21987;-74
2023/11/28 20:18:15;;;;;;;21.90;11.10;;;;;;;10.44;100.00;98669.58;108249;1285;22001;-64
2023/11/28 20:20:41;;;;;;;15.10;4.80;;;;;;;10.45;100.00;98663.58;108311;1285;23809;-66
2023/11/28 20:23:06;;;;;;;12.80;4.20;;;;;;;10.40;100.00;98657.30;108307;1273;22040;-70
2023/11/28 20:25:32;;;;;;;13.90;7.60;;;;;;;10.39;100.00;98648.90;108119;1285;22021;-73
2023/11/28 20:27:58;;;;;;;18.90;4.70;;;;;;;10.36;100.00;98642.00;108018;1285;21983;-65
2023/11/28 20:30:25;;;;;;;17.30;4.70;;;;;;;10.33;100.00;98637.54;108145;1285;22003;-73
2023/11/28 20:32:51;;;;;;;13.10;3.30;;;;;;;10.30;100.00;98627.14;108274;1286;22955;-73
2023/11/28 20:35:16;;;;;;;9.80;3.30;;;;;;;10.27;100.00;98619.34;108217;1280;23272;-65
2023/11/28 20:37:42;;;;;;;13.50;4.00;;;;;;;10.22;100.00;98614.30;108149;1286;21999;-72
2023/11/28 20:40:10;;;;;;;16.90;3.10;;;;;;;10.23;100.00;98606.55;108128;1277;21987;-67
2023/11/28 20:42:36;;;;;;;15.70;3.30;;;;;;;10.25;100.00;98601.55;108162;1280;22759;-65
2023/11/28 20:45:02;;;;;;;10.30;2.90;;;;;;;10.24;100.00;98596.15;108180;1286;21968;-71
2023/11/28 20:47:29;;;;;;;10.50;3.70;;;;;;;10.24;100.00;98593.19;108191;1286;21985;-70
2023/11/28 20:49:54;;;;;;;15.70;4.00;;;;;;;10.25;100.00;98588.94;108141;1286;21994;-65
2023/11/28 20:52:20;;;;;;;16.70;4.20;;;;;;;10.29;100.00;98581.77;108193;1286;21995;-70
2023/11/28 20:54:46;;;;;;;15.30;4.40;;;;;;;10.35;100.00;98575.39;107355;1286;1002487;-70
2023/11/28 20:57:11;;;;;;;14.50;3.50;;;;;;;10.41;100.00;98567.66;108124;1286;23725;-65
2023/11/28 20:59:37;;;;;;;17.40;4.10;;;;;;;10.46;100.00;98560.61;108216;1286;21990;-70
2023/11/28 21:02:04;;;;;;;15.00;4.30;;;;;;;10.48;100.00;98562.11;108190;1286;21984;-70
2023/11/28 21:04:33;;;;;;;15.40;3.50;;;;;;;10.49;100.00;98556.63;108181;1286;23625;-69
2023/11/28 21:06:59;;;;;;;14.30;3.10;;;;;;;10.56;100.00;98547.60;108181;1286;21948;-66
2023/11/28 21:09:24;;;;;;;15.80;4.10;;;;;;;10.55;100.00;98541.82;108231;1286;22024;-69
2023/11/28 21:11:50;;;;;;;12.50;3.70;;;;;;;10.58;100.00;98539.09;108171;1286;24345;-64
2023/11/28 21:14:16;;;;;;;13.20;3.80;;;;;;;10.61;100.00;98528.10;108132;1286;21991;-70
2023/11/28 21:16:43;;;;;;;14.30;3.60;;;;;;;10.65;100.00;98525.12;108138;1283;21984;-65
2023/11/28 21:19:08;;;;;;;13.00;3.00;;;;;;;10.68;100.00;98515.52;108160;1286;23038;-65
2023/11/28 21:21:34;;;;;;;12.00;3.80;;;;;;;10.64;100.00;98512.34;108268;1286;23647;-70
2023/11/28 21:24:03;;;;;;;13.00;4.60;;;;;;;10.69;100.00;98509.32;107364;1286;1002441;-69
2023/11/28 21:26:29;;;;;;;10.90;3.40;;;;;;;10.67;100.00;98507.46;108201;1280;21989;-64
2023/11/28 21:28:54;;;;;;;11.50;3.50;;;;;;;10.70;100.00;98499.64;108219;1285;23609;-65
2023/11/28 21:31:21;;;;;;;8.60;2.90;;;;;;;10.71;100.00;98494.86;108057;1285;22154;-64
2023/11/28 21:33:47;;;;;;;10.70;2.80;;;;;;;10.73;100.00;98493.88;108047;1285;21988;-70
2023/11/28 21:36:14;;;;;;;7.80;3.10;;;;;;;10.77;100.00;98492.67;108147;1285;22016;-64
2023/11/28 21:38:39;;;;;;;10.70;2.90;;;;;;;10.87;100.00;98482.59;108120;1285;22115;-64
2023/11/28 21:41:07;;;;;;;9.30;3.10;;;;;;;10.82;100.00;98478.92;108219;1286;21983;-65
2023/11/28 21:43:37;;;;;;;11.50;2.90;;;;;;;10.81;100.00;98466.37;108252;1286;22275;-69
2023/11/28 21:46:04;;;;;;;9.80;2.80;;;;;;;10.83;100.00;98461.89;108203;1277;22088;-69
2023/11/28 21:48:30;;;;;;;13.00;3.30;;;;;;;10.83;100.00;98461.53;108163;1284;21983;-65
2023/11/28 21:50:57;;;;;;;11.30;2.80;;;;;;;10.85;100.00;98452.50;108122;1280;24083;-66
2023/11/28 21:53:24;;;;;;;9.20;2.90;;;;;;;10.90;100.00;98440.52;108126;1286;21989;-66
2023/11/28 21:55:50;;;;;;;8.70;2.60;;;;;;;10.88;100.00;98431.16;108083;1277;24330;-67
2023/11/28 21:58:16;;;;;;;15.40;3.80;;;;;;;10.88;100.00;98427.79;108119;1286;22000;-68
2023/11/28 22:00:42;;;;;;;8.80;3.00;;;;;;;10.91;100.00;98423.83;108153;1280;23654;-66
2023/11/28 22:03:10;;;;;;;9.80;3.00;;;;;;;10.92;100.00;98417.30;108200;1286;22021;-67
2023/11/28 22:05:37;;;;;;;13.20;3.70;;;;;;;10.92;100.00;98408.69;108142;1286;22019;-67
2023/11/28 22:08:02;;;;;;;15.20;3.30;;;;;;;10.92;100.00;98403.95;108152;1280;21969;-68
2023/11/28 22:10:28;;;;;;;10.20;2.90;;;;;;;10.96;100.00;98399.73;108121;1286;21986;-68
2023/11/28 22:12:54;;;;;;;10.30;2.90;;;;;;;10.99;100.00;98391.00;108263;1280;23724;-66
2023/11/28 22:15:19;;;;;;;15.60;3.20;;;;;;;10.97;100.00;98384.23;108188;1287;21988;-66
2023/11/28 22:17:45;;;;;;;10.50;2.50;;;;;;;10.95;100.00;98377.29;108130;1280;21992;-66
2023/11/28 22:20:12;;;;;;;9.50;3.10;;;;;;;10.96;100.00;98371.85;108099;1286;21981;-69
2023/11/28 22:22:39;;;;;;;8.90;2.60;;;;;;;10.98;100.00;98370.48;108175;1286;21987;-66
2023/11/28 22:25:06;;;;;;;9.80;3.30;;;;;;;11.04;100.00;98363.74;108121;1273;21977;-69
2023/11/28 22:27:32;;;;;;;12.30;3.40;;;;;;;10.99;100.00;98358.38;108063;1280;22638;-69
2023/11/28 22:29:58;;;;;;;8.60;3.00;;;;;;;11.00;100.00;98356.17;108133;1275;21990;-67
2023/11/28 22:32:26;;;;;;;10.10;2.70;;;;;;;11.02;100.00;98349.64;108105;1280;22003;-66
2023/11/28 22:34:52;;;;;;;10.50;3.30;;;;;;;11.03;100.00;98341.66;108190;1286;21986;-70
2023/11/28 22:37:18;;;;;;;8.90;2.70;;;;;;;11.05;100.00;98334.23;108140;1285;21995;-69
2023/11/28 22:39:45;;;;;;;11.50;2.70;;;;;;;11.06;100.00;98331.17;108085;1280;21986;-67
2023/11/28 22:42:10;;;;;;;9.80;3.60;;;;;;;11.05;100.00;98330.52;108065;1280;21992;-69
2023/11/28 22:44:39;;;;;;;9.80;2.90;;;;;;;11.07;100.00;98334.80;108092;1285;21983;-67
2023/11/28 22:47:05;;;;;;;7.10;2.90;;;;;;;11.17;100.00;98348.91;108293;1285;21994;-70
2023/11/28 22:49:31;;;;;;;9.70;2.80;;;;;;;11.27;100.00;98354.95;108063;1285;21996;-70
2023/11/28 22:51:57;;;;;;;7.10;3.00;;;;;;;11.34;100.00;98347.05;108108;1285;22062;-67
2023/11/28 22:54:22;;;;;;;11.50;3.00;;;;;;;11.37;100.00;98343.23;108132;1277;22066;-70
2023/11/28 22:56:48;;;;;;;8.20;3.00;;;;;;;11.39;100.00;98329.11;108105;1285;23628;-69
2023/11/28 22:59:14;;;;;;;8.60;2.40;;;;;;;11.42;100.00;98329.45;108241;1280;21993;-71
2023/11/28 23:01:39;;;;;;;6.00;1.90;;;;;;;11.46;100.00;98331.23;108095;1274;21989;-71
2023/11/28 23:04:05;;;;;;;9.30;2.80;;;;;;;11.50;100.00;98333.31;108126;1280;23666;-69
2023/11/28 23:06:31;;;;;;;15.30;7.40;;;;;;;11.47;100.00;98335.02;108046;1285;21983;-70
2023/11/28 23:08:59;;;;;;;22.70;11.40;;;;;;;11.49;100.00;98326.16;108083;1283;22934;-70
2023/11/28 23:11:25;;;;;;;16.10;8.20;;;;;;;11.44;100.00;98313.59;108086;1285;21981;-66
2023/11/28 23:13:51;;;;;;;5.40;2.60;;;;;;;11.42;100.00;98301.90;108162;1277;23061;-70
2023/11/28 23:16:16;;;;;;;6.10;1.70;;;;;;;11.43;100.00;98293.77;108073;1277;22288;-67
2023/11/28 23:18:42;;;;;;;7.10;1.50;;;;;;;11.51;100.00;98290.94;108145;1286;21988;-70
2023/11/28 23:21:08;;;;;;;6.00;2.00;;;;;;;11.58;100.00;98289.02;108091;1286;21983;-71
2023/11/28 23:23:33;;;;;;;4.20;1.90;;;;;;;11.55;100.00;98288.08;108108;1286;21981;-65
2023/11/28 23:25:59;;;;;;;6.30;2.60;;;;;;;11.59;100.00;98280.86;108274;1286;21989;-70
2023/11/28 23:28:25;;;;;;;4.60;1.70;;;;;;;11.67;100.00;98271.14;108320;1285;21986;-70
2023/11/28 23:30:51;;;;;;;5.30;1.70;;;;;;;11.68;100.00;98267.46;108048;1274;21994;-66
2023/11/28 23:33:17;;;;;;;4.70;1.50;;;;;;;11.74;100.00;98265.39;108144;1281;21990;-69
2023/11/28 23:35:43;;;;;;;6.40;1.80;;;;;;;11.79;100.00;98268.63;108091;1280;22005;-66
2023/11/28 23:38:09;;;;;;;4.40;1.60;;;;;;;11.78;100.00;98261.45;108067;1285;21991;-66
2023/11/28 23:40:34;;;;;;;4.40;1.60;;;;;;;11.79;100.00;98256.69;108207;1286;23100;-66
2023/11/28 23:43:00;;;;;;;5.00;1.60;;;;;;;11.79;100.00;98254.92;108210;1286;23643;-66
2023/11/28 23:45:28;;;;;;;5.10;1.50;;;;;;;11.81;100.00;98253.77;108201;1280;24346;-65
2023/11/28 23:47:54;;;;;;;4.30;1.70;;;;;;;11.86;100.00;98253.34;108239;1286;21999;-66
2023/11/28 23:50:20;;;;;;;3.90;1.60;;;;;;;11.91;100.00;98248.86;108155;1286;22024;-66
2023/11/28 23:52:47;;;;;;;4.70;1.70;;;;;;;11.96;100.00;98244.73;108164;1284;21995;-70
2023/11/28 23:55:13;;;;;;;4.90;2.30;;;;;;;12.02;100.00;98239.02;108180;1286;21998;-70
2023/11/28 23:57:39;;;;;;;5.80;2.30;;;;;;;12.05;100.00;98235.84;108103;1278;23631;-69
